KCID

The Eastern Iowa Airport

Cedar Rapids, Iowa, USA
METAR KCID 171752Z 31009G20KT 290V350 10SM CLR 09/00 A3042 RMK AO2 SLP305 T00940000 10094 20022 51013
Observed Flight Rules
Oct-17 @ 17:52 UTC (29 minutes ago) Visual Flight Rules
Wind Visibility Clouds
310° at 9 knots
 Gusting to 20 knots
10 miles
  • Clear skies
Temperatures Readings
Current 9°C / 48°F
Dewpoint 0°C / 32°F
Humidity 54%
Altimeter 30.42" Hg
Pressure 1030.5 hPa
Elevation 264
METAR KCID 171752Z 31009G20KT 290V350 10SM CLR 09/00 A3042 RMK AO2 SLP305 T00940000 10094 20022 51013
Observed Flight Rules
Oct-17 @ 17:52 UTC
(29 minutes ago)
VFR
Wind Visibility
310° at 9 knots
 Gusting to 20 knots
10 miles
Clouds
  • Clear skies
Temperature Dewpoint
9°C / 48°F 0°C / 32°F
Humidity Altimeter Pressure
54% 30.42" Hg 1030.5 hPa